createdAt,value
2022-11-24T00:01:25.834Z,-9.79
2022-11-24T00:03:57.371Z,-9.78
2022-11-24T00:06:26.174Z,-9.84
2022-11-24T00:08:54.925Z,-9.89
2022-11-24T00:11:25.707Z,-9.81
2022-11-24T00:13:53.871Z,-9.78
2022-11-24T00:16:26.036Z,-9.82
2022-11-24T00:18:56.631Z,-9.74
2022-11-24T00:21:25.276Z,-9.75
2022-11-24T00:23:53.450Z,-9.73
2022-11-24T00:26:26.239Z,-9.78
2022-11-24T00:28:56.604Z,-9.83
2022-11-24T00:31:25.555Z,-9.81
2022-11-24T00:33:55.410Z,-9.84
2022-11-24T00:36:25.425Z,-9.76
2022-11-24T00:39:01.735Z,-9.74
2022-11-24T00:41:29.923Z,-9.69
2022-11-24T00:43:57.777Z,-9.73
2022-11-24T00:46:26.306Z,-9.62
2022-11-24T00:48:54.202Z,-9.91
2022-11-24T00:51:25.225Z,-9.67
2022-11-24T00:53:53.441Z,-9.74
2022-11-24T00:56:20.879Z,-9.69
2022-11-24T00:58:48.312Z,-9.64
2022-11-24T01:01:22.039Z,-9.73
2022-11-24T01:03:50.305Z,-9.67
2022-11-24T01:06:20.818Z,-9.75
2022-11-24T01:08:48.851Z,-9.76
2022-11-24T01:11:20.307Z,-9.74
2022-11-24T01:13:50.325Z,-9.74
2022-11-24T01:16:26.921Z,-9.83
2022-11-24T01:18:55.974Z,-9.89
2022-11-24T01:21:24.149Z,-9.83
2022-11-24T01:23:51.695Z,-9.88
2022-11-24T01:26:21.631Z,-9.79
2022-11-24T01:28:56.969Z,-9.84
2022-11-24T01:31:29.692Z,-9.92
2022-11-24T01:34:00.217Z,-9.83
2022-11-24T01:36:42.195Z,-9.91
2022-11-24T01:39:20.855Z,-10.13
2022-11-24T01:41:53.087Z,-9.83
2022-11-24T01:47:30.107Z,-9.84
2022-11-24T01:50:02.629Z,-9.79
2022-11-24T01:52:53.981Z,-9.89
2022-11-24T01:55:28.017Z,-9.81
2022-11-24T01:58:10.908Z,-9.91
2022-11-24T02:00:41.653Z,-9.86
2022-11-24T02:03:20.897Z,-9.83
2022-11-24T02:06:12.162Z,-9.79
2022-11-24T02:09:20.285Z,-10.06
2022-11-24T02:11:48.251Z,-9.85
2022-11-24T02:14:18.491Z,-10.19
2022-11-24T02:16:50.005Z,-9.89
2022-11-24T02:19:31.196Z,-9.92
2022-11-24T02:21:58.880Z,-9.88
2022-11-24T02:24:47.603Z,-9.90
2022-11-24T02:27:15.009Z,-10.03
2022-11-24T02:29:42.982Z,-9.95
2022-11-24T02:32:11.954Z,-10.02
2022-11-24T02:34:39.457Z,-10.02
2022-11-24T02:37:06.758Z,-9.98
2022-11-24T02:39:34.576Z,-10.08
2022-11-24T02:42:10.542Z,-10.09
2022-11-24T02:44:46.374Z,-10.02
2022-11-24T02:47:14.215Z,-9.98
2022-11-24T02:49:44.026Z,-10.00
2022-11-24T02:52:18.380Z,-10.01
2022-11-24T02:54:58.358Z,-10.11
2022-11-24T02:57:28.858Z,-10.01
2022-11-24T02:59:56.907Z,-9.97
2022-11-24T03:02:24.437Z,-10.05
2022-11-24T03:04:51.966Z,-10.09
2022-11-24T03:07:19.814Z,-10.08
2022-11-24T03:09:47.406Z,-10.07
2022-11-24T03:12:15.341Z,-10.07
2022-11-24T03:14:43.078Z,-10.03
2022-11-24T03:17:10.603Z,-10.05
2022-11-24T03:19:38.438Z,-10.03
2022-11-24T03:22:06.071Z,-10.12
2022-11-24T03:24:34.182Z,-10.06
2022-11-24T03:27:02.111Z,-10.10
2022-11-24T03:29:30.331Z,-10.11
2022-11-24T03:31:58.925Z,-10.17
2022-11-24T03:34:26.569Z,-10.06
2022-11-24T03:36:54.010Z,-10.13
2022-11-24T03:39:21.582Z,-10.13
2022-11-24T03:41:51.642Z,-10.13
2022-11-24T03:44:18.996Z,-10.05
2022-11-24T03:46:46.497Z,-10.09
2022-11-24T03:49:13.952Z,-10.18
2022-11-24T03:51:41.344Z,-10.17
2022-11-24T03:54:08.896Z,-10.23
2022-11-24T03:56:36.325Z,-10.11
2022-11-24T03:59:03.924Z,-10.10
2022-11-24T04:01:31.384Z,-10.06
2022-11-24T04:03:58.832Z,-10.07
2022-11-24T04:06:26.339Z,-10.01
2022-11-24T04:08:53.805Z,-9.97
2022-11-24T04:11:39.847Z,-9.98
2022-11-24T04:14:13.200Z,-9.87
2022-11-24T04:16:41.594Z,-9.85
2022-11-24T04:19:08.925Z,-9.85
2022-11-24T04:21:36.330Z,-9.87
2022-11-24T04:24:04.055Z,-9.87
2022-11-24T04:26:31.552Z,-9.82
2022-11-24T04:28:59.075Z,-9.81
2022-11-24T04:31:26.501Z,-9.82
2022-11-24T04:33:54.047Z,-9.97
2022-11-24T04:36:21.497Z,-9.90
2022-11-24T04:39:23.680Z,-9.86
2022-11-24T04:41:36.309Z,-9.86
2022-11-24T04:44:03.892Z,-9.98
2022-11-24T04:46:31.700Z,-10.01
2022-11-24T04:48:59.402Z,-10.02
2022-11-24T04:51:26.827Z,-10.03
2022-11-24T04:53:54.265Z,-10.03
2022-11-24T04:56:21.725Z,-10.00
2022-11-24T04:58:49.990Z,-10.08
2022-11-24T05:01:17.438Z,-10.11
2022-11-24T05:03:45.049Z,-10.24
2022-11-24T05:06:12.426Z,-10.21
2022-11-24T05:08:39.735Z,-10.32
2022-11-24T05:11:08.058Z,-10.19
2022-11-24T05:13:35.606Z,-10.15
2022-11-24T05:16:03.325Z,-10.28
2022-11-24T05:18:30.758Z,-10.13
2022-11-24T05:20:58.719Z,-10.18
2022-11-24T05:23:26.575Z,-10.12
2022-11-24T05:25:54.247Z,-10.09
2022-11-24T05:28:21.660Z,-10.09
2022-11-24T05:30:49.048Z,-10.12
2022-11-24T05:33:19.380Z,-10.39
2022-11-24T05:35:47.291Z,-10.17
2022-11-24T05:38:14.799Z,-10.21
2022-11-24T05:40:43.171Z,-10.16
2022-11-24T05:43:17.639Z,-10.24
2022-11-24T05:45:45.411Z,-10.04
2022-11-24T05:48:15.720Z,-10.04
2022-11-24T05:50:46.318Z,-10.16
2022-11-24T05:53:14.117Z,-10.06
2022-11-24T05:55:41.492Z,-10.10
2022-11-24T05:58:10.405Z,-9.99
2022-11-24T06:00:38.160Z,-9.90
2022-11-24T06:03:06.230Z,-9.92
2022-11-24T06:05:33.841Z,-9.97
2022-11-24T06:08:01.347Z,-9.89
2022-11-24T06:10:29.007Z,-9.85
2022-11-24T06:12:56.475Z,-9.81
2022-11-24T06:15:24.301Z,-9.75
2022-11-24T06:17:56.534Z,-9.72
2022-11-24T06:20:29.702Z,-9.71
2022-11-24T06:22:59.495Z,-9.63
2022-11-24T06:25:27.258Z,-9.59
2022-11-24T06:27:55.228Z,-9.53
2022-11-24T06:30:22.586Z,-9.45
2022-11-24T06:32:54.383Z,-9.39
2022-11-24T06:35:22.255Z,-9.42
2022-11-24T06:37:49.807Z,-9.37
2022-11-24T06:40:17.426Z,-9.34
2022-11-24T06:42:50.935Z,-9.22
2022-11-24T06:45:18.463Z,-9.21
2022-11-24T06:47:45.844Z,-9.18
2022-11-24T06:50:13.255Z,-9.17
2022-11-24T06:52:40.621Z,-9.11
2022-11-24T06:55:08.531Z,-9.07
2022-11-24T06:57:36.054Z,-9.04
2022-11-24T07:00:06.016Z,-8.94
2022-11-24T07:02:33.597Z,-8.98
2022-11-24T07:05:01.101Z,-8.91
2022-11-24T07:07:30.945Z,-8.98
2022-11-24T07:09:58.647Z,-8.99
2022-11-24T07:12:34.717Z,-8.94
2022-11-24T07:15:02.735Z,-9.27
2022-11-24T07:17:51.291Z,-9.04
2022-11-24T07:20:18.864Z,-8.99
2022-11-24T07:22:46.524Z,-8.97
2022-11-24T07:25:14.882Z,-9.01
2022-11-24T07:27:42.304Z,-9.05
2022-11-24T07:30:10.032Z,-8.95
2022-11-24T07:32:37.559Z,-8.93
2022-11-24T07:35:05.442Z,-8.97
2022-11-24T07:37:32.823Z,-8.90
2022-11-24T07:40:00.296Z,-8.87
2022-11-24T07:42:28.177Z,-8.91
2022-11-24T07:44:55.575Z,-8.88
2022-11-24T07:47:22.927Z,-8.92
2022-11-24T07:49:50.373Z,-8.87
2022-11-24T07:52:17.825Z,-8.86
2022-11-24T07:54:45.213Z,-8.85
2022-11-24T07:57:12.555Z,-8.76
2022-11-24T07:59:39.908Z,-8.67
2022-11-24T08:02:07.692Z,-8.64
2022-11-24T08:04:37.286Z,-8.52
2022-11-24T08:07:04.672Z,-8.71
2022-11-24T08:09:32.057Z,-8.43
2022-11-24T08:11:59.458Z,-8.37
2022-11-24T08:14:26.805Z,-8.31
2022-11-24T08:16:54.210Z,-8.23
2022-11-24T08:19:22.732Z,-8.17
2022-11-24T08:21:52.699Z,-8.22
2022-11-24T08:24:20.170Z,-8.14
2022-11-24T08:26:47.683Z,-8.09
2022-11-24T08:29:15.253Z,-8.04
2022-11-24T08:31:42.684Z,-8.03
2022-11-24T08:34:10.992Z,-8.06
2022-11-24T08:36:38.563Z,-8.01
2022-11-24T08:39:05.942Z,-8.00
2022-11-24T08:41:33.628Z,-7.88
2022-11-24T08:44:01.017Z,-7.88
2022-11-24T08:46:28.503Z,-7.77
2022-11-24T08:48:56.223Z,-7.68
2022-11-24T08:51:26.312Z,-7.57
2022-11-24T08:54:02.227Z,-7.45
2022-11-24T08:56:32.185Z,-7.40
2022-11-24T08:59:00.515Z,-7.37
2022-11-24T09:01:29.373Z,-7.34
2022-11-24T09:03:57.193Z,-7.36
2022-11-24T09:06:27.340Z,-7.25
2022-11-24T09:08:55.937Z,-7.24
2022-11-24T09:11:24.094Z,-7.20
2022-11-24T09:13:52.008Z,-7.24
2022-11-24T09:16:26.204Z,-7.30
2022-11-24T09:19:05.391Z,-7.15
2022-11-24T09:21:37.909Z,-7.12
2022-11-24T09:24:07.616Z,-7.08
2022-11-24T09:26:37.235Z,-7.03
2022-11-24T09:29:08.197Z,-6.95
2022-11-24T09:31:37.057Z,-6.94
2022-11-24T09:34:07.257Z,-6.98
2022-11-24T09:36:35.205Z,-6.93
2022-11-24T09:39:03.316Z,-6.97
2022-11-24T09:41:50.959Z,-6.94
2022-11-24T09:44:52.537Z,-6.87
2022-11-24T09:47:52.264Z,-6.89
2022-11-24T09:50:25.989Z,-6.95
2022-11-24T09:53:09.214Z,-6.97
2022-11-24T09:55:56.494Z,-6.89
2022-11-24T09:58:44.480Z,-6.97
2022-11-24T10:01:26.479Z,-6.94
2022-11-24T10:03:54.756Z,-6.94
2022-11-24T10:06:24.176Z,-6.93
2022-11-24T10:09:26.495Z,-6.92
2022-11-24T10:12:03.598Z,-6.78
2022-11-24T10:14:54.220Z,-6.79
2022-11-24T10:17:36.689Z,-6.78
2022-11-24T10:20:31.647Z,-6.72
2022-11-24T10:23:28.244Z,-6.69
2022-11-24T10:26:00.324Z,-6.71
2022-11-24T10:28:39.223Z,-6.74
2022-11-24T10:31:34.507Z,-6.64
2022-11-24T10:34:10.704Z,-6.67
2022-11-24T10:36:47.617Z,-6.64
2022-11-24T10:39:29.742Z,-6.61
2022-11-24T10:42:13.029Z,-6.62
2022-11-24T10:44:41.601Z,-6.58
2022-11-24T10:47:23.097Z,-6.62
2022-11-24T10:49:59.024Z,-6.63
2022-11-24T10:52:29.099Z,-6.68
2022-11-24T10:54:59.396Z,-6.68
2022-11-24T10:57:38.726Z,-6.66
2022-11-24T11:00:21.631Z,-6.59
2022-11-24T11:02:51.227Z,-6.64
2022-11-24T11:05:42.211Z,-6.56
2022-11-24T11:08:22.243Z,-6.59
2022-11-24T11:11:12.544Z,-6.56
2022-11-24T11:14:13.326Z,-6.51
2022-11-24T11:16:55.909Z,-6.47
2022-11-24T11:19:58.488Z,-6.47
2022-11-24T11:22:32.439Z,-6.48
2022-11-24T11:25:15.051Z,-6.46
2022-11-24T11:27:42.969Z,-6.43
2022-11-24T11:35:52.885Z,-6.31
2022-11-24T11:38:21.088Z,-6.28
2022-11-24T11:40:51.744Z,-6.24
2022-11-24T11:43:41.350Z,-6.26
2022-11-24T11:46:18.311Z,-6.26
2022-11-24T11:48:47.196Z,-6.20
2022-11-24T11:51:26.958Z,-6.26
2022-11-24T11:54:19.586Z,-6.09
2022-11-24T11:56:50.431Z,-6.06
2022-11-24T11:59:36.721Z,-5.95
2022-11-24T12:02:13.048Z,-6.03
2022-11-24T12:04:57.230Z,-6.04
2022-11-24T12:07:33.627Z,-6.05
2022-11-24T12:10:04.157Z,-6.04
2022-11-24T12:12:56.879Z,-6.00
2022-11-24T12:15:45.229Z,-6.03
2022-11-24T12:21:55.389Z,-6.06
2022-11-24T12:24:34.895Z,-6.08
2022-11-24T12:27:28.851Z,-6.10
2022-11-24T12:30:03.975Z,-6.09
2022-11-24T12:32:44.221Z,-6.08
2022-11-24T12:35:41.886Z,-6.03
2022-11-24T12:38:19.587Z,-6.01
2022-11-24T12:41:41.591Z,-5.96
2022-11-24T12:44:41.403Z,-6.00
2022-11-24T12:47:18.190Z,-6.05
2022-11-24T12:50:06.927Z,-6.08
2022-11-24T12:52:42.809Z,-6.13
2022-11-24T12:55:20.146Z,-6.12
2022-11-24T12:58:11.281Z,-6.11
2022-11-24T13:00:44.504Z,-6.12
2022-11-24T13:03:24.459Z,-6.10
2022-11-24T13:06:04.246Z,-6.17
2022-11-24T13:08:32.086Z,-6.31
2022-11-24T13:11:21.248Z,-6.28
2022-11-24T13:14:00.472Z,-6.49
2022-11-24T13:16:36.150Z,-6.38
2022-11-24T13:19:15.404Z,-6.40
2022-11-24T13:21:50.520Z,-6.41
2022-11-24T13:24:19.110Z,-6.35
2022-11-24T13:27:18.193Z,-6.27
2022-11-24T13:29:47.539Z,-6.23
2022-11-24T13:32:14.888Z,-6.23
2022-11-24T13:34:42.173Z,-6.21
2022-11-24T13:37:39.804Z,-6.20
2022-11-24T13:40:13.567Z,-6.13
2022-11-24T13:42:56.575Z,-6.11
2022-11-24T13:45:39.130Z,-6.14
2022-11-24T13:48:24.526Z,-6.09
2022-11-24T13:50:52.387Z,-6.17
2022-11-24T13:53:30.767Z,-6.17
2022-11-24T13:56:20.411Z,-6.14
2022-11-24T13:59:17.357Z,-6.15
2022-11-24T14:01:47.066Z,-6.15
2022-11-24T14:04:34.210Z,-6.15
2022-11-24T14:07:09.049Z,-6.11
2022-11-24T14:09:45.182Z,-6.14
2022-11-24T14:12:25.497Z,-6.18
2022-11-24T14:14:57.674Z,-6.26
2022-11-24T14:17:28.862Z,-6.29
2022-11-24T14:19:58.288Z,-6.24
2022-11-24T14:22:35.427Z,-6.28
2022-11-24T14:25:03.824Z,-6.28
2022-11-24T14:27:34.567Z,-6.25
2022-11-24T14:30:08.067Z,-6.27
2022-11-24T14:32:35.599Z,-6.33
2022-11-24T14:35:15.726Z,-6.28
2022-11-24T14:37:43.268Z,-6.30
2022-11-24T14:41:09.429Z,-6.22
2022-11-24T14:43:37.017Z,-6.26
2022-11-24T14:46:09.564Z,-6.28
2022-11-24T14:48:47.157Z,-6.27
2022-11-24T14:51:35.633Z,-6.22
2022-11-24T14:54:14.094Z,-6.25
2022-11-24T14:56:42.383Z,-6.26
2022-11-24T14:59:25.187Z,-6.22
2022-11-24T15:01:52.769Z,-6.18
2022-11-24T15:05:00.906Z,-6.15
2022-11-24T15:07:19.516Z,-6.05
2022-11-24T15:09:53.415Z,-5.98
2022-11-24T15:12:29.195Z,-5.90
2022-11-24T15:15:04.146Z,-5.92
2022-11-24T15:17:32.673Z,-5.92
2022-11-24T15:20:09.865Z,-5.83
2022-11-24T15:22:41.322Z,-5.82
2022-11-24T15:25:35.314Z,-5.76
2022-11-24T15:28:02.681Z,-5.74
2022-11-24T15:30:30.978Z,-5.72
2022-11-24T15:33:00.073Z,-5.63
2022-11-24T15:35:31.674Z,-5.61
2022-11-24T15:37:59.602Z,-5.58
2022-11-24T15:40:26.946Z,-5.57
2022-11-24T15:42:57.330Z,-5.55
2022-11-24T15:45:27.721Z,-5.51
2022-11-24T15:47:55.470Z,-5.42
2022-11-24T15:50:23.174Z,-5.40
2022-11-24T15:52:50.877Z,-5.39
2022-11-24T15:55:22.651Z,-5.30
2022-11-24T15:57:50.155Z,-5.31
2022-11-24T16:00:23.391Z,-5.21
2022-11-24T16:02:51.141Z,-5.26
2022-11-24T16:05:18.777Z,-5.27
2022-11-24T16:07:46.194Z,-5.24
2022-11-24T16:10:24.081Z,-5.19
2022-11-24T16:12:51.603Z,-5.14
2022-11-24T16:15:19.087Z,-5.12
2022-11-24T16:17:47.046Z,-5.08
2022-11-24T16:20:15.068Z,-5.02
2022-11-24T16:22:44.127Z,-4.96
2022-11-24T16:25:12.094Z,-4.92
2022-11-24T16:27:40.671Z,-4.93
2022-11-24T16:30:11.412Z,-4.86
2022-11-24T16:32:38.748Z,-4.84
2022-11-24T16:35:06.882Z,-4.84
2022-11-24T16:37:34.550Z,-4.88
2022-11-24T16:40:02.922Z,-4.79
2022-11-24T16:42:31.695Z,-4.76
2022-11-24T16:44:59.148Z,-4.74
2022-11-24T16:47:26.735Z,-4.73
2022-11-24T16:49:54.183Z,-4.69
2022-11-24T16:52:21.796Z,-4.67
2022-11-24T16:54:49.242Z,-4.63
2022-11-24T16:57:16.920Z,-4.59
2022-11-24T16:59:46.180Z,-4.56
2022-11-24T17:02:14.157Z,-4.52
2022-11-24T17:04:41.773Z,-4.48
2022-11-24T17:07:09.297Z,-4.48
2022-11-24T17:09:40.630Z,-4.44
2022-11-24T17:12:08.439Z,-4.42
2022-11-24T17:14:36.463Z,-4.40
2022-11-24T17:17:04.608Z,-4.40
2022-11-24T17:19:32.183Z,-4.39
2022-11-24T17:21:59.606Z,-4.35
2022-11-24T17:24:27.243Z,-4.32
2022-11-24T17:26:55.374Z,-4.29
2022-11-24T17:29:22.896Z,-4.28
2022-11-24T17:31:50.575Z,-4.26
2022-11-24T17:34:18.356Z,-4.23
2022-11-24T17:36:46.333Z,-4.23
2022-11-24T17:39:13.888Z,-4.23
2022-11-24T17:41:41.626Z,-4.24
2022-11-24T17:44:10.845Z,-4.24
2022-11-24T17:46:39.222Z,-4.22
2022-11-24T17:49:13.353Z,-4.20
2022-11-24T17:51:40.995Z,-4.20
2022-11-24T17:54:44.814Z,-4.22
2022-11-24T17:56:56.125Z,-4.25
2022-11-24T17:59:23.619Z,-4.21
2022-11-24T18:01:51.161Z,-4.21
2022-11-24T18:04:18.678Z,-4.26
2022-11-24T18:06:46.455Z,-4.23
2022-11-24T18:09:13.902Z,-4.26
2022-11-24T18:11:41.397Z,-4.25
2022-11-24T18:14:10.400Z,-4.19
2022-11-24T18:16:37.956Z,-4.21
2022-11-24T18:19:10.999Z,-4.19
2022-11-24T18:21:44.883Z,-4.15
2022-11-24T18:24:13.464Z,-4.20
2022-11-24T18:26:42.484Z,-4.16
2022-11-24T18:29:11.615Z,-4.15
2022-11-24T18:31:40.670Z,-4.17
2022-11-24T18:34:08.435Z,-4.14
2022-11-24T18:36:36.433Z,-4.12
2022-11-24T18:39:06.314Z,-4.11
2022-11-24T18:41:34.313Z,-4.11
2022-11-24T18:44:08.318Z,-4.12
2022-11-24T18:46:36.937Z,-4.12
2022-11-24T18:49:04.626Z,-4.14
2022-11-24T18:51:32.008Z,-4.13
2022-11-24T18:53:59.565Z,-4.14
2022-11-24T18:56:27.201Z,-4.14
2022-11-24T18:58:56.996Z,-4.13
2022-11-24T19:01:27.654Z,-4.11
2022-11-24T19:04:00.823Z,-4.07
2022-11-24T19:06:34.312Z,-4.07
2022-11-24T19:09:07.436Z,-4.10
2022-11-24T19:11:37.671Z,-4.09
2022-11-24T19:14:06.989Z,-4.14
2022-11-24T19:16:35.429Z,-4.09
2022-11-24T19:19:03.227Z,-4.06
2022-11-24T19:21:33.053Z,-4.08
2022-11-24T19:24:05.003Z,-4.08
2022-11-24T19:26:35.311Z,-4.08
2022-11-24T19:29:03.549Z,-4.07
2022-11-24T19:31:31.165Z,-4.07
2022-11-24T19:34:00.761Z,-4.08
2022-11-24T19:36:28.144Z,-4.09
2022-11-24T19:38:56.943Z,-4.25
2022-11-24T19:41:27.579Z,-4.07
2022-11-24T19:43:55.112Z,-4.08
2022-11-24T19:46:26.492Z,-4.08
2022-11-24T19:48:56.381Z,-4.06
2022-11-24T19:51:26.417Z,-4.01
2022-11-24T19:53:54.372Z,-4.00
2022-11-24T19:56:24.579Z,-3.99
2022-11-24T19:58:53.554Z,-3.99
2022-11-24T20:01:24.970Z,-3.97
2022-11-24T20:04:03.802Z,-3.93
2022-11-24T20:06:35.211Z,-4.06
2022-11-24T20:09:04.112Z,-4.01
2022-11-24T20:11:31.862Z,-4.03
2022-11-24T20:13:59.480Z,-4.04
2022-11-24T20:16:30.148Z,-4.02
2022-11-24T20:19:00.518Z,-3.98
2022-11-24T20:21:31.536Z,-3.97
2022-11-24T20:24:06.658Z,-3.98
2022-11-24T20:26:39.735Z,-3.97
2022-11-24T20:29:09.881Z,-4.01
2022-11-24T20:31:40.869Z,-4.03
2022-11-24T20:34:08.960Z,-4.04
2022-11-24T20:36:38.367Z,-4.08
2022-11-24T20:39:09.733Z,-4.07
2022-11-24T20:41:39.204Z,-4.13
2022-11-24T20:44:10.878Z,-4.17
2022-11-24T20:46:40.431Z,-4.20
2022-11-24T20:49:09.142Z,-4.21
2022-11-24T20:51:40.045Z,-4.18
2022-11-24T20:54:08.680Z,-4.23
2022-11-24T20:56:40.060Z,-4.23
2022-11-24T20:59:08.767Z,-4.27
2022-11-24T21:01:38.929Z,-4.24
2022-11-24T21:04:08.855Z,-4.27
2022-11-24T21:06:37.275Z,-4.28
2022-11-24T21:09:05.985Z,-4.31
2022-11-24T21:11:33.341Z,-4.32
2022-11-24T21:14:02.405Z,-4.33
2022-11-24T21:16:32.370Z,-4.38
2022-11-24T21:19:06.280Z,-4.31
2022-11-24T21:21:34.733Z,-4.29
2022-11-24T21:24:23.395Z,-4.36
2022-11-24T21:26:52.972Z,-4.37
2022-11-24T21:29:23.706Z,-4.40
2022-11-24T21:31:51.498Z,-4.41
2022-11-24T21:34:19.701Z,-4.42
2022-11-24T21:36:47.462Z,-4.43
2022-11-24T21:39:15.973Z,-4.61
2022-11-24T21:41:44.083Z,-4.46
2022-11-24T21:44:13.185Z,-4.47
2022-11-24T21:46:46.076Z,-4.51
2022-11-24T21:49:17.058Z,-4.53
2022-11-24T21:51:44.482Z,-4.55
2022-11-24T21:54:11.812Z,-4.53
2022-11-24T21:56:39.172Z,-4.56
2022-11-24T21:59:06.509Z,-4.56
2022-11-24T22:01:34.099Z,-4.58
2022-11-24T22:04:01.580Z,-4.62
2022-11-24T22:06:29.013Z,-4.64
2022-11-24T22:08:56.544Z,-4.68
2022-11-24T22:11:25.661Z,-4.68
2022-11-24T22:13:53.453Z,-4.68
2022-11-24T22:16:23.418Z,-4.74
2022-11-24T22:18:51.639Z,-4.72
2022-11-24T22:21:25.792Z,-4.73
2022-11-24T22:23:53.562Z,-4.75
2022-11-24T22:26:23.052Z,-4.79
2022-11-24T22:28:51.120Z,-4.79
2022-11-24T22:31:21.238Z,-4.79
2022-11-24T22:33:49.274Z,-4.82
2022-11-24T22:36:18.654Z,-4.81
2022-11-24T22:38:46.065Z,-4.84
2022-11-24T22:41:15.582Z,-4.85
2022-11-24T22:43:44.275Z,-4.87
2022-11-24T22:46:22.831Z,-4.89
2022-11-24T22:49:09.335Z,-4.94
2022-11-24T22:51:39.326Z,-4.95
2022-11-24T22:54:25.344Z,-5.01
2022-11-24T22:56:52.745Z,-5.07
2022-11-24T22:59:20.173Z,-5.09
2022-11-24T23:02:06.339Z,-5.13
2022-11-24T23:04:34.187Z,-5.21
2022-11-24T23:07:01.736Z,-5.22
2022-11-24T23:09:29.741Z,-5.23
2022-11-24T23:11:57.116Z,-5.22
2022-11-24T23:14:24.495Z,-5.25
2022-11-24T23:16:53.516Z,-5.25
2022-11-24T23:19:20.979Z,-5.24
2022-11-24T23:21:48.329Z,-5.25
2022-11-24T23:24:15.747Z,-5.29
2022-11-24T23:27:01.777Z,-5.32
2022-11-24T23:29:47.687Z,-5.37
2022-11-24T23:32:15.129Z,-5.42
2022-11-24T23:35:01.233Z,-5.47
2022-11-24T23:37:52.111Z,-5.54
2022-11-24T23:40:16.326Z,-5.61
2022-11-24T23:42:47.398Z,-5.65
2022-11-24T23:45:15.498Z,-5.71
2022-11-24T23:47:43.061Z,-5.75
2022-11-24T23:50:10.652Z,-5.78
2022-11-24T23:52:38.048Z,-5.86
2022-11-24T23:55:06.015Z,-5.94
2022-11-24T23:57:33.465Z,-5.98
